sensor_id;sensor_type;location;lat;lon;timestamp;P1;durP1;ratioP1;P2;durP2;ratioP2
2434;SDS011;1228;51.022;6.764;2024-02-04T00:00:26;9.87;;;7.97;;
2434;SDS011;1228;51.022;6.764;2024-02-04T00:02:52;9.07;;;8.00;;
2434;SDS011;1228;51.022;6.764;2024-02-04T00:05:17;8.70;;;7.90;;
2434;SDS011;1228;51.022;6.764;2024-02-04T00:07:43;9.33;;;8.50;;
2434;SDS011;1228;51.022;6.764;2024-02-04T00:10:09;10.50;;;9.40;;
2434;SDS011;1228;51.022;6.764;2024-02-04T00:12:36;12.10;;;9.97;;
2434;SDS011;1228;51.022;6.764;2024-02-04T00:15:01;12.73;;;10.40;;
2434;SDS011;1228;51.022;6.764;2024-02-04T00:17:29;12.47;;;11.00;;
2434;SDS011;1228;51.022;6.764;2024-02-04T00:19:57;11.77;;;10.57;;
2434;SDS011;1228;51.022;6.764;2024-02-04T00:22:27;14.07;;;12.17;;
2434;SDS011;1228;51.022;6.764;2024-02-04T00:24:53;14.13;;;12.37;;
2434;SDS011;1228;51.022;6.764;2024-02-04T00:27:19;15.63;;;13.03;;
2434;SDS011;1228;51.022;6.764;2024-02-04T00:29:45;13.57;;;12.03;;
2434;SDS011;1228;51.022;6.764;2024-02-04T00:32:10;12.97;;;11.67;;
2434;SDS011;1228;51.022;6.764;2024-02-04T00:34:36;13.37;;;11.40;;
2434;SDS011;1228;51.022;6.764;2024-02-04T00:37:01;13.77;;;11.60;;
2434;SDS011;1228;51.022;6.764;2024-02-04T00:39:27;12.83;;;11.47;;
2434;SDS011;1228;51.022;6.764;2024-02-04T00:41:53;12.73;;;11.23;;
2434;SDS011;1228;51.022;6.764;2024-02-04T00:44:19;11.27;;;10.17;;
2434;SDS011;1228;51.022;6.764;2024-02-04T00:46:47;11.53;;;10.37;;
2434;SDS011;1228;51.022;6.764;2024-02-04T00:49:13;11.00;;;9.90;;
2434;SDS011;1228;51.022;6.764;2024-02-04T00:51:38;11.50;;;9.50;;
2434;SDS011;1228;51.022;6.764;2024-02-04T00:54:04;9.70;;;8.77;;
2434;SDS011;1228;51.022;6.764;2024-02-04T00:56:30;9.67;;;8.77;;
2434;SDS011;1228;51.022;6.764;2024-02-04T00:58:55;10.27;;;9.13;;
2434;SDS011;1228;51.022;6.764;2024-02-04T01:01:21;8.20;;;7.50;;
2434;SDS011;1228;51.022;6.764;2024-02-04T01:03:47;8.47;;;7.77;;
2434;SDS011;1228;51.022;6.764;2024-02-04T01:06:13;8.57;;;7.63;;
2434;SDS011;1228;51.022;6.764;2024-02-04T01:08:39;9.83;;;9.03;;
2434;SDS011;1228;51.022;6.764;2024-02-04T01:11:05;8.10;;;7.40;;
2434;SDS011;1228;51.022;6.764;2024-02-04T01:13:30;8.40;;;7.57;;
2434;SDS011;1228;51.022;6.764;2024-02-04T01:15:56;8.80;;;8.00;;
2434;SDS011;1228;51.022;6.764;2024-02-04T01:18:22;7.93;;;7.30;;
2434;SDS011;1228;51.022;6.764;2024-02-04T01:20:47;8.87;;;8.07;;
2434;SDS011;1228;51.022;6.764;2024-02-04T01:23:13;8.87;;;8.07;;
2434;SDS011;1228;51.022;6.764;2024-02-04T01:25:42;7.93;;;7.23;;
2434;SDS011;1228;51.022;6.764;2024-02-04T01:28:08;8.67;;;7.83;;
2434;SDS011;1228;51.022;6.764;2024-02-04T01:30:34;8.43;;;7.83;;
2434;SDS011;1228;51.022;6.764;2024-02-04T01:32:59;7.70;;;7.00;;
2434;SDS011;1228;51.022;6.764;2024-02-04T01:35:25;8.77;;;8.07;;
2434;SDS011;1228;51.022;6.764;2024-02-04T01:37:50;8.27;;;7.57;;
2434;SDS011;1228;51.022;6.764;2024-02-04T01:40:16;8.67;;;7.87;;
2434;SDS011;1228;51.022;6.764;2024-02-04T01:42:42;8.63;;;7.83;;
2434;SDS011;1228;51.022;6.764;2024-02-04T01:45:11;9.37;;;8.47;;
2434;SDS011;1228;51.022;6.764;2024-02-04T01:47:36;9.70;;;8.80;;
2434;SDS011;1228;51.022;6.764;2024-02-04T01:50:02;9.07;;;8.27;;
2434;SDS011;1228;51.022;6.764;2024-02-04T01:52:29;8.23;;;7.53;;
2434;SDS011;1228;51.022;6.764;2024-02-04T01:54:59;9.13;;;8.30;;
2434;SDS011;1228;51.022;6.764;2024-02-04T01:57:25;8.73;;;7.97;;
2434;SDS011;1228;51.022;6.764;2024-02-04T01:59:52;9.20;;;8.40;;
2434;SDS011;1228;51.022;6.764;2024-02-04T02:02:19;8.37;;;7.57;;
2434;SDS011;1228;51.022;6.764;2024-02-04T02:04:46;8.77;;;7.97;;
2434;SDS011;1228;51.022;6.764;2024-02-04T02:07:12;8.10;;;7.40;;
2434;SDS011;1228;51.022;6.764;2024-02-04T02:09:40;8.70;;;8.00;;
2434;SDS011;1228;51.022;6.764;2024-02-04T02:12:09;8.13;;;7.43;;
2434;SDS011;1228;51.022;6.764;2024-02-04T02:14:39;8.53;;;7.73;;
2434;SDS011;1228;51.022;6.764;2024-02-04T02:17:11;8.37;;;7.57;;
2434;SDS011;1228;51.022;6.764;2024-02-04T02:22:36;8.00;;;7.40;;
2434;SDS011;1228;51.022;6.764;2024-02-04T02:25:08;8.83;;;8.00;;
2434;SDS011;1228;51.022;6.764;2024-02-04T02:27:45;9.07;;;8.17;;
2434;SDS011;1228;51.022;6.764;2024-02-04T02:30:14;9.30;;;8.17;;
2434;SDS011;1228;51.022;6.764;2024-02-04T02:32:41;8.67;;;7.90;;
2434;SDS011;1228;51.022;6.764;2024-02-04T02:35:08;9.27;;;8.30;;
2434;SDS011;1228;51.022;6.764;2024-02-04T02:37:46;8.53;;;7.83;;
2434;SDS011;1228;51.022;6.764;2024-02-04T02:40:23;8.80;;;8.00;;
2434;SDS011;1228;51.022;6.764;2024-02-04T02:42:53;9.03;;;8.23;;
2434;SDS011;1228;51.022;6.764;2024-02-04T02:45:22;8.80;;;8.00;;
2434;SDS011;1228;51.022;6.764;2024-02-04T02:47:50;8.90;;;8.20;;
2434;SDS011;1228;51.022;6.764;2024-02-04T02:50:16;8.37;;;7.67;;
2434;SDS011;1228;51.022;6.764;2024-02-04T02:52:42;9.40;;;8.03;;
2434;SDS011;1228;51.022;6.764;2024-02-04T02:55:07;8.50;;;7.70;;
2434;SDS011;1228;51.022;6.764;2024-02-04T02:57:33;8.97;;;7.97;;
2434;SDS011;1228;51.022;6.764;2024-02-04T02:59:59;8.73;;;7.93;;
2434;SDS011;1228;51.022;6.764;2024-02-04T03:02:24;9.87;;;8.80;;
2434;SDS011;1228;51.022;6.764;2024-02-04T03:04:50;8.63;;;7.93;;
2434;SDS011;1228;51.022;6.764;2024-02-04T03:07:18;9.23;;;8.33;;
2434;SDS011;1228;51.022;6.764;2024-02-04T03:09:44;8.33;;;7.53;;
2434;SDS011;1228;51.022;6.764;2024-02-04T03:12:09;8.33;;;7.63;;
2434;SDS011;1228;51.022;6.764;2024-02-04T03:14:35;8.60;;;7.87;;
2434;SDS011;1228;51.022;6.764;2024-02-04T03:17:01;9.33;;;8.33;;
2434;SDS011;1228;51.022;6.764;2024-02-04T03:19:26;8.90;;;8.13;;
2434;SDS011;1228;51.022;6.764;2024-02-04T03:21:52;10.10;;;9.10;;
2434;SDS011;1228;51.022;6.764;2024-02-04T03:24:17;10.13;;;9.23;;
2434;SDS011;1228;51.022;6.764;2024-02-04T03:26:43;11.20;;;9.97;;
2434;SDS011;1228;51.022;6.764;2024-02-04T03:29:09;10.17;;;9.23;;
2434;SDS011;1228;51.022;6.764;2024-02-04T03:31:34;10.70;;;9.70;;
2434;SDS011;1228;51.022;6.764;2024-02-04T03:34:00;10.23;;;9.20;;
2434;SDS011;1228;51.022;6.764;2024-02-04T03:36:25;10.77;;;9.77;;
2434;SDS011;1228;51.022;6.764;2024-02-04T03:38:52;10.97;;;9.87;;
2434;SDS011;1228;51.022;6.764;2024-02-04T03:41:18;11.97;;;10.60;;
2434;SDS011;1228;51.022;6.764;2024-02-04T03:43:43;11.10;;;9.83;;
2434;SDS011;1228;51.022;6.764;2024-02-04T03:46:16;11.03;;;9.93;;
2434;SDS011;1228;51.022;6.764;2024-02-04T03:48:42;10.83;;;9.80;;
2434;SDS011;1228;51.022;6.764;2024-02-04T03:51:08;12.57;;;11.33;;
2434;SDS011;1228;51.022;6.764;2024-02-04T03:53:39;13.27;;;10.80;;
2434;SDS011;1228;51.022;6.764;2024-02-04T03:56:05;15.03;;;10.80;;
2434;SDS011;1228;51.022;6.764;2024-02-04T03:58:32;11.47;;;10.30;;
2434;SDS011;1228;51.022;6.764;2024-02-04T04:00:58;11.27;;;10.17;;
2434;SDS011;1228;51.022;6.764;2024-02-04T04:03:24;13.87;;;10.17;;
2434;SDS011;1228;51.022;6.764;2024-02-04T04:05:51;11.83;;;10.63;;
2434;SDS011;1228;51.022;6.764;2024-02-04T04:08:18;14.23;;;11.03;;
2434;SDS011;1228;51.022;6.764;2024-02-04T04:10:43;12.33;;;10.63;;
2434;SDS011;1228;51.022;6.764;2024-02-04T04:13:09;11.80;;;10.70;;
2434;SDS011;1228;51.022;6.764;2024-02-04T04:15:35;10.13;;;9.20;;
2434;SDS011;1228;51.022;6.764;2024-02-04T04:18:01;11.20;;;10.17;;
2434;SDS011;1228;51.022;6.764;2024-02-04T04:20:27;10.13;;;9.20;;
2434;SDS011;1228;51.022;6.764;2024-02-04T04:23:01;9.97;;;9.03;;
2434;SDS011;1228;51.022;6.764;2024-02-04T04:25:27;10.57;;;9.03;;
2434;SDS011;1228;51.022;6.764;2024-02-04T04:27:52;10.13;;;9.13;;
2434;SDS011;1228;51.022;6.764;2024-02-04T04:30:18;9.27;;;8.37;;
2434;SDS011;1228;51.022;6.764;2024-02-04T04:32:43;11.40;;;10.20;;
2434;SDS011;1228;51.022;6.764;2024-02-04T04:35:09;11.23;;;10.13;;
2434;SDS011;1228;51.022;6.764;2024-02-04T04:37:34;11.13;;;10.03;;
2434;SDS011;1228;51.022;6.764;2024-02-04T04:40:00;10.73;;;9.67;;
2434;SDS011;1228;51.022;6.764;2024-02-04T04:42:26;10.60;;;9.40;;
2434;SDS011;1228;51.022;6.764;2024-02-04T04:44:51;13.07;;;11.57;;
2434;SDS011;1228;51.022;6.764;2024-02-04T04:47:17;13.20;;;11.73;;
2434;SDS011;1228;51.022;6.764;2024-02-04T04:49:42;13.80;;;11.37;;
2434;SDS011;1228;51.022;6.764;2024-02-04T04:52:08;12.90;;;11.60;;
2434;SDS011;1228;51.022;6.764;2024-02-04T04:54:33;12.30;;;10.90;;
2434;SDS011;1228;51.022;6.764;2024-02-04T04:56:59;16.67;;;12.47;;
2434;SDS011;1228;51.022;6.764;2024-02-04T04:59:25;15.47;;;11.97;;
2434;SDS011;1228;51.022;6.764;2024-02-04T05:01:50;13.53;;;12.13;;
2434;SDS011;1228;51.022;6.764;2024-02-04T05:04:16;11.33;;;9.60;;
2434;SDS011;1228;51.022;6.764;2024-02-04T05:06:43;18.83;;;12.23;;
2434;SDS011;1228;51.022;6.764;2024-02-04T05:09:09;13.83;;;12.07;;
2434;SDS011;1228;51.022;6.764;2024-02-04T05:11:35;14.13;;;12.00;;
2434;SDS011;1228;51.022;6.764;2024-02-04T05:14:00;15.57;;;12.13;;
2434;SDS011;1228;51.022;6.764;2024-02-04T05:16:26;15.60;;;12.13;;
2434;SDS011;1228;51.022;6.764;2024-02-04T05:18:52;17.93;;;12.50;;
2434;SDS011;1228;51.022;6.764;2024-02-04T05:21:17;15.53;;;12.87;;
2434;SDS011;1228;51.022;6.764;2024-02-04T05:23:43;16.17;;;12.57;;
2434;SDS011;1228;51.022;6.764;2024-02-04T05:26:08;17.23;;;13.40;;
2434;SDS011;1228;51.022;6.764;2024-02-04T05:28:34;15.33;;;12.97;;
2434;SDS011;1228;51.022;6.764;2024-02-04T05:31:00;14.97;;;13.00;;
2434;SDS011;1228;51.022;6.764;2024-02-04T05:33:27;16.20;;;12.50;;
2434;SDS011;1228;51.022;6.764;2024-02-04T05:35:53;15.33;;;11.93;;
2434;SDS011;1228;51.022;6.764;2024-02-04T05:38:18;12.83;;;11.37;;
2434;SDS011;1228;51.022;6.764;2024-02-04T05:40:44;15.50;;;12.60;;
2434;SDS011;1228;51.022;6.764;2024-02-04T05:43:10;13.63;;;11.90;;
2434;SDS011;1228;51.022;6.764;2024-02-04T05:45:36;15.50;;;12.23;;
2434;SDS011;1228;51.022;6.764;2024-02-04T05:48:05;14.80;;;12.23;;
2434;SDS011;1228;51.022;6.764;2024-02-04T05:50:32;15.60;;;12.27;;
2434;SDS011;1228;51.022;6.764;2024-02-04T05:52:57;13.23;;;11.80;;
2434;SDS011;1228;51.022;6.764;2024-02-04T05:55:23;15.03;;;12.37;;
2434;SDS011;1228;51.022;6.764;2024-02-04T05:57:49;18.10;;;12.73;;
2434;SDS011;1228;51.022;6.764;2024-02-04T06:00:14;17.67;;;12.80;;
2434;SDS011;1228;51.022;6.764;2024-02-04T06:02:40;16.10;;;13.63;;
2434;SDS011;1228;51.022;6.764;2024-02-04T06:05:08;12.97;;;11.50;;
2434;SDS011;1228;51.022;6.764;2024-02-04T06:07:34;14.77;;;11.60;;
2434;SDS011;1228;51.022;6.764;2024-02-04T06:09:59;13.70;;;11.33;;
2434;SDS011;1228;51.022;6.764;2024-02-04T06:12:28;11.90;;;10.70;;
2434;SDS011;1228;51.022;6.764;2024-02-04T06:14:54;19.33;;;11.90;;
2434;SDS011;1228;51.022;6.764;2024-02-04T06:17:19;15.57;;;10.97;;
2434;SDS011;1228;51.022;6.764;2024-02-04T06:19:45;14.03;;;11.43;;
2434;SDS011;1228;51.022;6.764;2024-02-04T06:22:11;16.83;;;12.67;;
2434;SDS011;1228;51.022;6.764;2024-02-04T06:24:36;14.47;;;10.43;;
2434;SDS011;1228;51.022;6.764;2024-02-04T06:27:04;13.83;;;10.87;;
2434;SDS011;1228;51.022;6.764;2024-02-04T06:29:29;12.40;;;11.03;;
2434;SDS011;1228;51.022;6.764;2024-02-04T06:31:55;15.63;;;11.20;;
2434;SDS011;1228;51.022;6.764;2024-02-04T06:34:21;12.63;;;10.97;;
2434;SDS011;1228;51.022;6.764;2024-02-04T06:36:46;12.67;;;10.70;;
2434;SDS011;1228;51.022;6.764;2024-02-04T06:39:12;12.70;;;11.20;;
2434;SDS011;1228;51.022;6.764;2024-02-04T06:41:38;14.27;;;10.40;;
2434;SDS011;1228;51.022;6.764;2024-02-04T06:44:04;12.03;;;9.30;;
2434;SDS011;1228;51.022;6.764;2024-02-04T06:46:30;11.20;;;9.80;;
2434;SDS011;1228;51.022;6.764;2024-02-04T06:48:56;11.00;;;9.80;;
2434;SDS011;1228;51.022;6.764;2024-02-04T06:51:22;12.87;;;10.40;;
2434;SDS011;1228;51.022;6.764;2024-02-04T06:53:48;11.50;;;10.40;;
2434;SDS011;1228;51.022;6.764;2024-02-04T06:56:13;13.70;;;9.97;;
2434;SDS011;1228;51.022;6.764;2024-02-04T06:58:39;10.30;;;9.30;;
2434;SDS011;1228;51.022;6.764;2024-02-04T07:01:06;9.73;;;8.73;;
2434;SDS011;1228;51.022;6.764;2024-02-04T07:03:31;10.60;;;8.73;;
2434;SDS011;1228;51.022;6.764;2024-02-04T07:05:58;9.00;;;8.20;;
2434;SDS011;1228;51.022;6.764;2024-02-04T07:08:24;9.27;;;8.37;;
2434;SDS011;1228;51.022;6.764;2024-02-04T07:10:50;9.33;;;8.53;;
2434;SDS011;1228;51.022;6.764;2024-02-04T07:13:16;7.80;;;7.17;;
2434;SDS011;1228;51.022;6.764;2024-02-04T07:15:42;8.87;;;8.07;;
2434;SDS011;1228;51.022;6.764;2024-02-04T07:18:08;7.73;;;6.93;;
2434;SDS011;1228;51.022;6.764;2024-02-04T07:20:34;8.20;;;7.60;;
2434;SDS011;1228;51.022;6.764;2024-02-04T07:23:00;8.00;;;7.20;;
2434;SDS011;1228;51.022;6.764;2024-02-04T07:25:26;7.60;;;7.00;;
2434;SDS011;1228;51.022;6.764;2024-02-04T07:27:51;7.53;;;7.00;;
2434;SDS011;1228;51.022;6.764;2024-02-04T07:30:17;7.77;;;7.17;;
2434;SDS011;1228;51.022;6.764;2024-02-04T07:32:42;7.17;;;6.67;;
2434;SDS011;1228;51.022;6.764;2024-02-04T07:35:08;7.60;;;7.00;;
2434;SDS011;1228;51.022;6.764;2024-02-04T07:37:37;6.50;;;6.10;;
2434;SDS011;1228;51.022;6.764;2024-02-04T07:40:03;6.70;;;6.10;;
2434;SDS011;1228;51.022;6.764;2024-02-04T07:42:31;6.77;;;6.33;;
2434;SDS011;1228;51.022;6.764;2024-02-04T07:44:57;6.57;;;6.10;;
2434;SDS011;1228;51.022;6.764;2024-02-04T07:47:22;6.17;;;5.73;;
2434;SDS011;1228;51.022;6.764;2024-02-04T07:49:48;6.37;;;5.97;;
2434;SDS011;1228;51.022;6.764;2024-02-04T07:52:14;6.20;;;5.80;;
2434;SDS011;1228;51.022;6.764;2024-02-04T07:54:40;6.07;;;5.67;;
2434;SDS011;1228;51.022;6.764;2024-02-04T07:57:06;6.67;;;6.23;;
2434;SDS011;1228;51.022;6.764;2024-02-04T07:59:31;6.90;;;6.40;;
2434;SDS011;1228;51.022;6.764;2024-02-04T08:01:57;6.77;;;6.10;;
2434;SDS011;1228;51.022;6.764;2024-02-04T08:04:23;7.03;;;6.53;;
2434;SDS011;1228;51.022;6.764;2024-02-04T08:06:48;7.00;;;6.50;;
2434;SDS011;1228;51.022;6.764;2024-02-04T08:09:14;7.03;;;6.53;;
2434;SDS011;1228;51.022;6.764;2024-02-04T08:11:40;6.80;;;6.40;;
2434;SDS011;1228;51.022;6.764;2024-02-04T08:14:06;7.40;;;6.90;;
2434;SDS011;1228;51.022;6.764;2024-02-04T08:16:31;7.73;;;7.13;;
2434;SDS011;1228;51.022;6.764;2024-02-04T08:18:57;8.17;;;7.57;;
2434;SDS011;1228;51.022;6.764;2024-02-04T08:21:23;7.10;;;6.50;;
2434;SDS011;1228;51.022;6.764;2024-02-04T08:23:49;7.17;;;6.47;;
2434;SDS011;1228;51.022;6.764;2024-02-04T08:26:14;7.17;;;6.47;;
2434;SDS011;1228;51.022;6.764;2024-02-04T08:28:40;7.20;;;6.50;;
2434;SDS011;1228;51.022;6.764;2024-02-04T08:31:06;6.57;;;6.07;;
2434;SDS011;1228;51.022;6.764;2024-02-04T08:33:32;6.83;;;6.33;;
2434;SDS011;1228;51.022;6.764;2024-02-04T08:35:57;7.40;;;6.70;;
2434;SDS011;1228;51.022;6.764;2024-02-04T08:38:23;6.50;;;6.00;;
2434;SDS011;1228;51.022;6.764;2024-02-04T08:40:48;6.63;;;6.03;;
2434;SDS011;1228;51.022;6.764;2024-02-04T08:43:14;7.10;;;6.50;;
2434;SDS011;1228;51.022;6.764;2024-02-04T08:45:41;8.40;;;6.67;;
2434;SDS011;1228;51.022;6.764;2024-02-04T08:48:07;7.60;;;6.90;;
2434;SDS011;1228;51.022;6.764;2024-02-04T08:50:32;7.13;;;6.40;;
2434;SDS011;1228;51.022;6.764;2024-02-04T08:52:58;7.23;;;6.53;;
2434;SDS011;1228;51.022;6.764;2024-02-04T08:55:23;8.43;;;6.70;;
2434;SDS011;1228;51.022;6.764;2024-02-04T08:57:49;6.70;;;6.10;;
2434;SDS011;1228;51.022;6.764;2024-02-04T09:00:15;7.97;;;6.83;;
2434;SDS011;1228;51.022;6.764;2024-02-04T09:02:41;7.10;;;6.40;;
2434;SDS011;1228;51.022;6.764;2024-02-04T09:05:07;7.10;;;6.47;;
2434;SDS011;1228;51.022;6.764;2024-02-04T09:07:33;8.53;;;6.90;;
2434;SDS011;1228;51.022;6.764;2024-02-04T09:09:59;7.43;;;6.13;;
2434;SDS011;1228;51.022;6.764;2024-02-04T09:12:24;9.43;;;7.13;;
2434;SDS011;1228;51.022;6.764;2024-02-04T09:14:50;6.10;;;5.53;;
2434;SDS011;1228;51.022;6.764;2024-02-04T09:17:15;6.00;;;5.57;;
2434;SDS011;1228;51.022;6.764;2024-02-04T09:19:41;5.53;;;5.13;;
2434;SDS011;1228;51.022;6.764;2024-02-04T09:22:07;5.30;;;4.93;;
2434;SDS011;1228;51.022;6.764;2024-02-04T09:24:32;6.23;;;5.73;;
2434;SDS011;1228;51.022;6.764;2024-02-04T09:26:58;5.63;;;5.23;;
2434;SDS011;1228;51.022;6.764;2024-02-04T09:29:24;5.50;;;5.10;;
2434;SDS011;1228;51.022;6.764;2024-02-04T09:31:49;4.93;;;4.63;;
2434;SDS011;1228;51.022;6.764;2024-02-04T09:34:16;5.30;;;5.00;;
2434;SDS011;1228;51.022;6.764;2024-02-04T09:36:43;5.10;;;4.80;;
2434;SDS011;1228;51.022;6.764;2024-02-04T09:39:09;5.00;;;4.70;;
2434;SDS011;1228;51.022;6.764;2024-02-04T09:41:34;5.73;;;5.33;;
2434;SDS011;1228;51.022;6.764;2024-02-04T09:44:00;5.63;;;5.23;;
2434;SDS011;1228;51.022;6.764;2024-02-04T09:46:28;5.63;;;5.23;;
2434;SDS011;1228;51.022;6.764;2024-02-04T09:48:55;5.60;;;5.10;;
2434;SDS011;1228;51.022;6.764;2024-02-04T09:51:21;5.80;;;5.30;;
2434;SDS011;1228;51.022;6.764;2024-02-04T09:53:49;6.17;;;5.60;;
2434;SDS011;1228;51.022;6.764;2024-02-04T09:56:17;8.83;;;5.53;;
2434;SDS011;1228;51.022;6.764;2024-02-04T09:58:43;6.37;;;5.87;;
2434;SDS011;1228;51.022;6.764;2024-02-04T10:01:09;6.27;;;5.77;;
2434;SDS011;1228;51.022;6.764;2024-02-04T10:03:36;7.93;;;6.20;;
2434;SDS011;1228;51.022;6.764;2024-02-04T10:06:02;5.87;;;5.37;;
2434;SDS011;1228;51.022;6.764;2024-02-04T10:08:28;7.63;;;5.80;;
2434;SDS011;1228;51.022;6.764;2024-02-04T10:10:54;6.97;;;5.80;;
2434;SDS011;1228;51.022;6.764;2024-02-04T10:13:20;6.20;;;5.60;;
2434;SDS011;1228;51.022;6.764;2024-02-04T10:15:47;6.37;;;5.77;;
2434;SDS011;1228;51.022;6.764;2024-02-04T10:18:13;6.43;;;5.60;;
2434;SDS011;1228;51.022;6.764;2024-02-04T10:20:38;6.93;;;6.23;;
2434;SDS011;1228;51.022;6.764;2024-02-04T10:23:04;6.60;;;6.03;;
2434;SDS011;1228;51.022;6.764;2024-02-04T10:25:30;6.67;;;6.03;;
2434;SDS011;1228;51.022;6.764;2024-02-04T10:27:55;7.67;;;6.13;;
2434;SDS011;1228;51.022;6.764;2024-02-04T10:30:23;8.60;;;6.50;;
2434;SDS011;1228;51.022;6.764;2024-02-04T10:32:51;6.93;;;6.30;;
2434;SDS011;1228;51.022;6.764;2024-02-04T10:35:17;7.43;;;6.73;;
2434;SDS011;1228;51.022;6.764;2024-02-04T10:37:47;7.73;;;7.03;;
2434;SDS011;1228;51.022;6.764;2024-02-04T10:40:13;6.07;;;5.57;;
2434;SDS011;1228;51.022;6.764;2024-02-04T10:42:39;6.30;;;5.80;;
2434;SDS011;1228;51.022;6.764;2024-02-04T10:45:08;6.57;;;5.93;;
2434;SDS011;1228;51.022;6.764;2024-02-04T10:47:37;7.83;;;6.20;;
2434;SDS011;1228;51.022;6.764;2024-02-04T10:50:04;6.03;;;5.43;;
2434;SDS011;1228;51.022;6.764;2024-02-04T10:52:35;6.00;;;5.40;;
2434;SDS011;1228;51.022;6.764;2024-02-04T10:55:05;6.10;;;5.50;;
2434;SDS011;1228;51.022;6.764;2024-02-04T10:57:33;6.20;;;5.60;;
2434;SDS011;1228;51.022;6.764;2024-02-04T11:00:00;5.27;;;4.87;;
2434;SDS011;1228;51.022;6.764;2024-02-04T11:02:29;6.50;;;5.57;;
2434;SDS011;1228;51.022;6.764;2024-02-04T11:04:58;5.73;;;5.23;;
2434;SDS011;1228;51.022;6.764;2024-02-04T11:07:25;4.93;;;4.63;;
2434;SDS011;1228;51.022;6.764;2024-02-04T11:09:52;5.57;;;5.10;;
2434;SDS011;1228;51.022;6.764;2024-02-04T11:12:18;6.53;;;5.10;;
2434;SDS011;1228;51.022;6.764;2024-02-04T11:14:47;5.17;;;4.77;;
2434;SDS011;1228;51.022;6.764;2024-02-04T11:25:34;6.67;;;5.97;;
2434;SDS011;1228;51.022;6.764;2024-02-04T11:28:05;5.43;;;5.00;;
2434;SDS011;1228;51.022;6.764;2024-02-04T11:30:34;5.97;;;5.37;;
2434;SDS011;1228;51.022;6.764;2024-02-04T11:33:01;4.90;;;4.60;;
2434;SDS011;1228;51.022;6.764;2024-02-04T11:35:31;5.30;;;4.90;;
2434;SDS011;1228;51.022;6.764;2024-02-04T11:37:57;5.47;;;5.03;;
2434;SDS011;1228;51.022;6.764;2024-02-04T11:40:23;5.33;;;4.93;;
2434;SDS011;1228;51.022;6.764;2024-02-04T11:43:05;6.60;;;6.00;;
2434;SDS011;1228;51.022;6.764;2024-02-04T11:45:31;8.93;;;5.90;;
2434;SDS011;1228;51.022;6.764;2024-02-04T11:48:01;6.40;;;5.90;;
2434;SDS011;1228;51.022;6.764;2024-02-04T11:50:27;6.30;;;5.70;;
2434;SDS011;1228;51.022;6.764;2024-02-04T11:53:05;7.03;;;6.40;;
2434;SDS011;1228;51.022;6.764;2024-02-04T11:55:35;8.27;;;5.57;;
2434;SDS011;1228;51.022;6.764;2024-02-04T11:58:02;6.50;;;5.83;;
2434;SDS011;1228;51.022;6.764;2024-02-04T12:00:35;6.43;;;5.93;;
2434;SDS011;1228;51.022;6.764;2024-02-04T12:03:04;7.10;;;5.80;;
2434;SDS011;1228;51.022;6.764;2024-02-04T12:05:32;6.03;;;5.50;;
2434;SDS011;1228;51.022;6.764;2024-02-04T12:07:59;6.43;;;5.83;;
2434;SDS011;1228;51.022;6.764;2024-02-04T12:10:30;6.07;;;5.57;;
2434;SDS011;1228;51.022;6.764;2024-02-04T12:12:57;7.40;;;6.70;;
2434;SDS011;1228;51.022;6.764;2024-02-04T12:15:27;6.93;;;6.33;;
2434;SDS011;1228;51.022;6.764;2024-02-04T12:17:54;6.50;;;5.90;;
2434;SDS011;1228;51.022;6.764;2024-02-04T12:20:20;7.47;;;6.87;;
2434;SDS011;1228;51.022;6.764;2024-02-04T12:22:46;7.67;;;6.87;;
2434;SDS011;1228;51.022;6.764;2024-02-04T12:25:13;6.80;;;6.10;;
2434;SDS011;1228;51.022;6.764;2024-02-04T12:27:39;9.10;;;5.57;;
2434;SDS011;1228;51.022;6.764;2024-02-04T12:30:05;6.10;;;5.60;;
2434;SDS011;1228;51.022;6.764;2024-02-04T12:32:32;6.13;;;5.57;;
2434;SDS011;1228;51.022;6.764;2024-02-04T12:34:58;7.20;;;6.60;;
2434;SDS011;1228;51.022;6.764;2024-02-04T12:37:23;6.70;;;6.20;;
2434;SDS011;1228;51.022;6.764;2024-02-04T12:39:51;7.73;;;5.77;;
2434;SDS011;1228;51.022;6.764;2024-02-04T12:42:17;7.80;;;6.60;;
2434;SDS011;1228;51.022;6.764;2024-02-04T12:44:49;7.57;;;6.87;;
2434;SDS011;1228;51.022;6.764;2024-02-04T12:47:19;6.63;;;6.10;;
2434;SDS011;1228;51.022;6.764;2024-02-04T12:49:45;6.27;;;5.77;;
2434;SDS011;1228;51.022;6.764;2024-02-04T12:52:11;6.03;;;5.63;;
2434;SDS011;1228;51.022;6.764;2024-02-04T12:54:43;6.30;;;5.80;;
2434;SDS011;1228;51.022;6.764;2024-02-04T12:57:09;6.10;;;5.50;;
2434;SDS011;1228;51.022;6.764;2024-02-04T12:59:38;6.20;;;5.70;;
2434;SDS011;1228;51.022;6.764;2024-02-04T13:02:06;6.97;;;6.40;;
2434;SDS011;1228;51.022;6.764;2024-02-04T13:04:33;6.77;;;6.23;;
2434;SDS011;1228;51.022;6.764;2024-02-04T13:07:00;7.43;;;6.70;;
2434;SDS011;1228;51.022;6.764;2024-02-04T13:09:26;7.70;;;7.10;;
2434;SDS011;1228;51.022;6.764;2024-02-04T13:11:51;9.23;;;7.03;;
2434;SDS011;1228;51.022;6.764;2024-02-04T13:14:17;7.73;;;6.87;;
2434;SDS011;1228;51.022;6.764;2024-02-04T13:16:43;7.13;;;6.63;;
2434;SDS011;1228;51.022;6.764;2024-02-04T13:19:08;7.67;;;6.97;;
2434;SDS011;1228;51.022;6.764;2024-02-04T13:21:34;8.20;;;7.40;;
2434;SDS011;1228;51.022;6.764;2024-02-04T13:23:59;9.47;;;8.60;;
2434;SDS011;1228;51.022;6.764;2024-02-04T13:26:25;9.07;;;8.27;;
2434;SDS011;1228;51.022;6.764;2024-02-04T13:28:51;8.57;;;7.77;;
2434;SDS011;1228;51.022;6.764;2024-02-04T13:31:17;7.50;;;6.80;;
2434;SDS011;1228;51.022;6.764;2024-02-04T13:33:42;8.93;;;8.23;;
2434;SDS011;1228;51.022;6.764;2024-02-04T13:36:08;7.70;;;7.13;;
2434;SDS011;1228;51.022;6.764;2024-02-04T13:38:34;8.77;;;7.97;;
2434;SDS011;1228;51.022;6.764;2024-02-04T13:41:01;8.33;;;7.73;;
2434;SDS011;1228;51.022;6.764;2024-02-04T13:43:29;8.00;;;7.30;;
2434;SDS011;1228;51.022;6.764;2024-02-04T13:45:56;6.83;;;6.30;;
2434;SDS011;1228;51.022;6.764;2024-02-04T13:48:21;7.07;;;6.47;;
2434;SDS011;1228;51.022;6.764;2024-02-04T13:50:49;7.43;;;6.90;;
2434;SDS011;1228;51.022;6.764;2024-02-04T13:53:15;7.13;;;6.63;;
2434;SDS011;1228;51.022;6.764;2024-02-04T13:55:41;6.23;;;5.87;;
2434;SDS011;1228;51.022;6.764;2024-02-04T13:58:07;6.10;;;5.70;;
2434;SDS011;1228;51.022;6.764;2024-02-04T14:00:32;6.60;;;6.10;;
2434;SDS011;1228;51.022;6.764;2024-02-04T14:02:58;5.93;;;5.57;;
2434;SDS011;1228;51.022;6.764;2024-02-04T14:05:24;6.00;;;5.60;;
2434;SDS011;1228;51.022;6.764;2024-02-04T14:07:50;5.03;;;4.73;;
2434;SDS011;1228;51.022;6.764;2024-02-04T14:10:16;4.90;;;4.60;;
2434;SDS011;1228;51.022;6.764;2024-02-04T14:12:42;5.97;;;5.50;;
2434;SDS011;1228;51.022;6.764;2024-02-04T14:15:10;5.57;;;5.10;;
2434;SDS011;1228;51.022;6.764;2024-02-04T14:17:36;5.23;;;4.93;;
2434;SDS011;1228;51.022;6.764;2024-02-04T14:20:02;5.63;;;5.30;;
2434;SDS011;1228;51.022;6.764;2024-02-04T14:22:29;5.10;;;4.70;;
2434;SDS011;1228;51.022;6.764;2024-02-04T14:24:55;5.57;;;5.17;;
2434;SDS011;1228;51.022;6.764;2024-02-04T14:27:22;5.30;;;5.00;;
2434;SDS011;1228;51.022;6.764;2024-02-04T14:29:47;5.60;;;5.20;;
2434;SDS011;1228;51.022;6.764;2024-02-04T14:32:13;5.53;;;5.23;;
2434;SDS011;1228;51.022;6.764;2024-02-04T14:34:39;4.87;;;4.57;;
2434;SDS011;1228;51.022;6.764;2024-02-04T14:37:05;5.70;;;5.30;;
2434;SDS011;1228;51.022;6.764;2024-02-04T14:39:30;5.20;;;4.90;;
2434;SDS011;1228;51.022;6.764;2024-02-04T14:41:56;4.90;;;4.60;;
2434;SDS011;1228;51.022;6.764;2024-02-04T14:44:22;5.50;;;4.67;;
2434;SDS011;1228;51.022;6.764;2024-02-04T14:46:48;5.37;;;4.90;;
2434;SDS011;1228;51.022;6.764;2024-02-04T14:49:14;4.90;;;4.60;;
2434;SDS011;1228;51.022;6.764;2024-02-04T14:51:40;5.43;;;5.00;;
2434;SDS011;1228;51.022;6.764;2024-02-04T14:54:06;5.20;;;4.80;;
2434;SDS011;1228;51.022;6.764;2024-02-04T14:56:38;4.70;;;4.37;;
2434;SDS011;1228;51.022;6.764;2024-02-04T14:59:05;5.33;;;5.00;;
2434;SDS011;1228;51.022;6.764;2024-02-04T15:01:33;4.83;;;4.50;;
2434;SDS011;1228;51.022;6.764;2024-02-04T15:04:00;5.03;;;4.73;;
2434;SDS011;1228;51.022;6.764;2024-02-04T15:06:25;5.07;;;4.77;;
2434;SDS011;1228;51.022;6.764;2024-02-04T15:08:51;5.03;;;4.73;;
2434;SDS011;1228;51.022;6.764;2024-02-04T15:11:17;5.23;;;4.83;;
2434;SDS011;1228;51.022;6.764;2024-02-04T15:13:42;5.43;;;4.97;;